Charlevoix, MI

5:35 PM EST on January 16, 2017 (GMT -0500)
1.5 W Ironton | | Change Station
Active Advisory: Winter Weather Advisory

Elev 750 ft 45.26 °N, 85.22 °W | Updated 50 seconds ago

Clear
Clear
32.2 °F
Feels Like 32 °F
N
0.0
Wind Variable Wind from SW
Gusts 2.0 mph

Today
High -- | Low -- °F
--% Chance of Precip.
Yesterday
High -- | Low -- °F
Precip. -- in
Pressure 30.20 in
Visibility 10.0 miles
Clouds Clear
Windchill 32 °F
Dew Point 27 °F
Humidity 80%
Rainfall 0.04 in
Snow Depth Not available.
8:15 AM 5:26 PM
Waning Gibbous, 78% visible
METAR KCVX 162214Z AUTO 00000KT 10SM CLR 00/M03 A3020 RMK AO2 T00041032
Pressure 30.20 in
Visibility 10.0 miles
Clouds Clear
Windchill 32 °F
Dew Point 27 °F
Humidity 80%
Rainfall 0.04 in
Snow Depth Not available.
8:15 AM 5:26 PM
Waning Gibbous, 78% visible
METAR KCVX 162214Z AUTO 00000KT 10SM CLR 00/M03 A3020 RMK AO2 T00041032

Get Your Daily Forecast Email!

Thanks for signing up!

Be on the lookout for a verification email in your inbox.

You'll start receiving the daily forecast at 8 AM.

×

10-Day Weather Forecast

Almanac

Astronomy

Jan. 16, 2017 Rise Set
Actual Time
Civil Twilight
Nautical Twilight
Astronomical Twilight
Moon
Length of Visible Light
Length of Day
Tomorrow will be .
, % of the Moon is Illuminated

Today's Extremes

State Highs State Lows

Community

WunderPhotos

Upload Photos

1,962,540 photos uploaded!

WunderBlog® & News

Nearby

Air Quality

  Air Quality AQ Index Pollutant
Not available.

Snow Depth

Station Depth Elevation

Earthquake Activity

City Distance Mag. Time & Date
Minimum magnitude displayed is 2.5.

Coastal Water Temperatures

Place Temperature

Stations

Nearby Weather Stations

Station Location Temp. Windchill Dew Point Humidity Wind Precip. Elev Updated Type
                   

Watches & Warnings

Winter Weather Advisory
Issued: 3:56 PM EST Jan. 16, 2017 – National Weather Service

... Winter Weather Advisory remains in effect from midnight
tonight to noon EST Tuesday...

* a wintry mix of precipitation is expected tonight.
Initially... snow will spread into the region later this
evening.

* Snow will eventually transition to a period of sleet and
freezing rain overnight through Tuesday morning... becoming all
rain by around midday Tuesday.

* Total snow accumulations of up to 1 inch are expected.

* Ice accumulations of around one tenth of an inch are expected.

* The light snow and ice will result in hazardous travel
conditions... including during the morning commute on Tuesday.

Precautionary/preparedness actions...

A Winter Weather Advisory means that periods of snow... sleet or
freezing rain will cause travel difficulties. Be prepared for
slippery roads... and use caution while driving. For the latest
Road conditions... go to the mdot website at Michigan.Gov.